»·PEaware :: N133JB KFAT-KMRY

N133JB :: KFAT-KMRY

FLIGHT INFORMATION

Flight Status: Arrived
Operator: Privately registered:
United States
More flights under this callsign
Pilot: Justin B. (24218)
Aircraft: CESSNA 172 SKYHAWK
(C172)
More flights by this aircraft type
Origin: KFAT Fresno Yosemite Intl
United States
Destination: KMRY Monterey Peninsula
United States
More flights between these airports :: More routes between these airports
Route: BULL3 BLEAR HIXAR
File this flight plan on PilotEdge
Remarks:
Altitude:
(Current/Filed)
6,000ft
Speed:
(Current/Filed)
110kts
Departed: 16-Aug-21 09:28 PM
Arrived: 16-Aug-21 10:38 PM
Distance/Time
Traveled:
103nm/1:10
Distance/Time
To Go:
Arrived

Flight Plot

Page will automatically refresh every two minutes.

Flight plan parsing failed; only flown route is shown


Map Options




Map Legend


Flown Route
Filed Route
Departure Airport
Arrival Airport
Navaid (VOR, NDB)
Fix

Horizontal Profiles

Position Reports

Time Latitude Longitude Heading Altitude Ground
Speed
16-Aug-21 21:13 36.772046 -119.719611 347 339ft 0kts
16-Aug-21 21:14 36.772047 -119.719611 347 339ft 0kts
16-Aug-21 21:15 36.772047 -119.719611 347 339ft 0kts
16-Aug-21 21:16 36.772047 -119.719611 347 339ft 0kts
16-Aug-21 21:17 36.772655 -119.719138 67 339ft 15kts
16-Aug-21 21:18 36.771209 -119.714589 121 339ft 31kts
16-Aug-21 21:19 36.769840 -119.710406 31 339ft 0kts
16-Aug-21 21:20 36.769841 -119.710405 31 339ft 0kts
16-Aug-21 21:21 36.769841 -119.710405 31 339ft 0kts
16-Aug-21 21:22 36.769842 -119.710404 31 339ft 0kts
16-Aug-21 21:23 36.769842 -119.710404 31 339ft 0kts
16-Aug-21 21:24 36.769843 -119.710403 32 339ft 0kts
16-Aug-21 21:25 36.769844 -119.710403 32 339ft 0kts
16-Aug-21 21:26 36.770674 -119.710712 303 339ft 15kts
16-Aug-21 21:27 36.785142 -119.730622 305 860ft 95kts
16-Aug-21 21:28 36.802292 -119.755293 303 1838ft 88kts
16-Aug-21 21:29 36.814461 -119.783924 304 2583ft 98kts
16-Aug-21 21:30 36.814642 -119.818364 271 3308ft 105kts
16-Aug-21 21:31 36.810251 -119.854008 267 4054ft 100kts
16-Aug-21 21:32 36.815013 -119.887751 281 4600ft 104kts
16-Aug-21 21:33 36.816104 -119.923960 279 5099ft 104kts
16-Aug-21 21:34 36.816842 -119.959726 279 5593ft 102kts
16-Aug-21 21:35 36.817563 -119.994971 278 6009ft 106kts
16-Aug-21 21:36 36.818355 -120.034258 278 6003ft 115kts
16-Aug-21 21:37 36.819128 -120.074414 278 6002ft 115kts
16-Aug-21 21:38 36.819891 -120.114494 278 6002ft 115kts
16-Aug-21 21:39 36.820657 -120.155028 278 6003ft 117kts
16-Aug-21 21:40 36.818585 -120.195910 263 6003ft 121kts
16-Aug-21 21:41 36.811616 -120.236322 265 6159ft 111kts
16-Aug-21 21:42 36.805167 -120.275261 264 6245ft 119kts
16-Aug-21 21:43 36.798377 -120.316006 264 6242ft 120kts
16-Aug-21 21:44 36.791573 -120.356764 264 6242ft 120kts
16-Aug-21 21:45 36.784678 -120.397898 264 6242ft 120kts
16-Aug-21 21:47 36.777832 -120.438784 264 6242ft 120kts
16-Aug-21 21:48 36.770932 -120.479884 264 6242ft 120kts
16-Aug-21 21:49 36.764042 -120.520821 264 6242ft 120kts
16-Aug-21 21:50 36.757017 -120.561733 263 6242ft 121kts
16-Aug-21 21:51 36.750128 -120.602617 264 6242ft 120kts
16-Aug-21 21:52 36.743268 -120.643674 264 6242ft 120kts
16-Aug-21 21:53 36.736336 -120.684538 264 6242ft 120kts
16-Aug-21 21:54 36.729358 -120.725549 264 6242ft 120kts
16-Aug-21 21:55 36.722372 -120.766512 264 6242ft 120kts
16-Aug-21 21:56 36.715387 -120.807378 264 6242ft 120kts
16-Aug-21 21:57 36.708358 -120.848418 264 6242ft 120kts
16-Aug-21 21:58 36.701332 -120.889350 264 6242ft 120kts
16-Aug-21 21:59 36.694310 -120.930166 264 6242ft 120kts
16-Aug-21 22:00 36.687250 -120.971115 264 6242ft 120kts
16-Aug-21 22:01 36.680163 -121.012067 264 6256ft 120kts
16-Aug-21 22:02 36.673035 -121.052357 265 6329ft 118kts
16-Aug-21 22:03 36.665536 -121.092960 260 6325ft 121kts
16-Aug-21 22:04 36.657004 -121.133987 261 6263ft 123kts
16-Aug-21 22:05 36.650809 -121.175150 267 6261ft 119kts
16-Aug-21 22:06 36.642937 -121.215392 259 6309ft 121kts
16-Aug-21 22:07 36.635689 -121.256834 266 6237ft 120kts
16-Aug-21 22:08 36.630533 -121.297762 265 6254ft 119kts
16-Aug-21 22:09 36.622930 -121.338619 259 6232ft 122kts
16-Aug-21 22:10 36.613148 -121.379077 263 6249ft 120kts
16-Aug-21 22:11 36.608525 -121.420053 265 6242ft 120kts
16-Aug-21 22:12 36.601614 -121.460939 264 6242ft 121kts
16-Aug-21 22:13 36.594370 -121.501895 264 6242ft 121kts
16-Aug-21 22:14 36.587109 -121.542778 264 6242ft 121kts
16-Aug-21 22:15 36.584827 -121.582889 293 6249ft 113kts
16-Aug-21 22:16 36.594120 -121.620739 293 6242ft 114kts
16-Aug-21 22:16 36.601783 -121.652179 293 6242ft 114kts
16-Aug-21 22:17 36.610973 -121.689962 293 6242ft 114kts
16-Aug-21 22:19 36.621238 -121.734184 283 6243ft 116kts
16-Aug-21 22:20 36.624303 -121.774396 282 6242ft 116kts
16-Aug-21 22:20 36.626973 -121.806865 281 6014ft 101kts
16-Aug-21 22:22 36.627981 -121.848378 280 5133ft 102kts
16-Aug-21 22:23 36.630892 -121.882796 281 4464ft 99kts
16-Aug-21 22:23 36.634479 -121.912194 288 3716ft 105kts
16-Aug-21 22:24 36.638098 -121.948139 281 2957ft 98kts
16-Aug-21 22:26 36.639790 -121.985400 280 2879ft 92kts
16-Aug-21 22:26 36.641989 -122.012427 285 2850ft 92kts
16-Aug-21 22:27 36.637273 -122.044411 259 2852ft 100kts
16-Aug-21 22:28 36.632986 -122.076706 307 2877ft 85kts
16-Aug-21 22:29 36.642452 -122.063777 113 2879ft 101kts
16-Aug-21 22:30 36.633840 -122.032369 87 2932ft 95kts
16-Aug-21 22:31 36.629507 -121.997916 95 2617ft 103kts
16-Aug-21 22:32 36.622449 -121.963215 93 2133ft 100kts
16-Aug-21 22:33 36.614882 -121.930311 115 1734ft 104kts
16-Aug-21 22:34 36.605349 -121.900892 120 939ft 83kts
16-Aug-21 22:35 36.597770 -121.873734 128 577ft 80kts
16-Aug-21 22:36 36.588940 -121.849548 133 260ft 57kts
16-Aug-21 22:37 36.587891 -121.845270 46 260ft 0kts

Navigation Log

Ident Type
Flight plan parsing failed, navigation log unavailable